Time;durP1;ratioP1;P1;durP2;ratioP2;P2;SDS_P1;SDS_P2;PMS_P1;PMS_P2;Temp;Humidity;BMP_temperature;BMP_pressure;BME280_temperature;BME280_humidity;BME280_pressure;Samples;Min_cycle;Max_cycle;Signal;HPM_P1;HPM_P2
2024/02/18 00:00:55;;;;;;;36.53;19.48;;;9.30;99.90;;;;;;4953809;29;20079;-82
2024/02/18 00:03:22;;;;;;;35.00;18.75;;;9.30;99.90;;;;;;4937761;29;20124;-82
2024/02/18 00:05:49;;;;;;;40.85;20.90;;;9.30;99.90;;;;;;4935120;29;20044;-82
2024/02/18 00:08:15;;;;;;;36.35;20.10;;;9.30;99.90;;;;;;4955608;29;20042;-82
2024/02/18 00:10:42;;;;;;;37.63;20.05;;;9.70;99.90;;;;;;4931795;29;20039;-82
2024/02/18 00:13:08;;;;;;;36.58;20.73;;;9.30;99.90;;;;;;4937591;29;20418;-82
2024/02/18 00:15:35;;;;;;;38.72;19.55;;;9.30;99.90;;;;;;4950283;29;20052;-82
2024/02/18 00:18:02;;;;;;;39.95;20.25;;;9.30;99.90;;;;;;4937015;29;20043;-82
2024/02/18 00:20:29;;;;;;;41.38;21.17;;;9.30;99.90;;;;;;4937801;29;20036;-82
2024/02/18 00:22:56;;;;;;;38.55;21.05;;;9.40;99.90;;;;;;4951366;29;20063;-82
2024/02/18 00:25:25;;;;;;;42.15;21.17;;;9.30;99.90;;;;;;4943155;29;20039;-82
2024/02/18 00:27:52;;;;;;;39.10;20.45;;;9.30;99.90;;;;;;4937270;29;20040;-82
2024/02/18 00:30:19;;;;;;;39.67;20.83;;;10.00;99.90;;;;;;4937735;29;20106;-82
2024/02/18 00:32:46;;;;;;;40.53;20.83;;;9.30;99.90;;;;;;4937064;29;20063;-82
2024/02/18 00:35:13;;;;;;;37.58;20.40;;;9.30;99.90;;;;;;4952760;29;20409;-82
2024/02/18 00:37:39;;;;;;;36.80;20.02;;;9.40;99.90;;;;;;4937044;29;20046;-82
2024/02/18 00:40:07;;;;;;;40.63;20.17;;;9.40;99.90;;;;;;4942528;29;20144;-83
2024/02/18 00:42:34;;;;;;;42.78;20.27;;;9.40;99.90;;;;;;4935478;29;20568;-82
2024/02/18 00:45:01;;;;;;;34.72;19.85;;;9.50;99.90;;;;;;4942229;29;20040;-82
2024/02/18 00:47:27;;;;;;;33.47;18.60;;;9.90;99.90;;;;;;4934910;29;20048;-82
2024/02/18 00:49:54;;;;;;;39.50;20.48;;;9.80;99.90;;;;;;4952694;29;20039;-82
2024/02/18 00:52:21;;;;;;;38.03;19.83;;;9.40;99.90;;;;;;4936386;29;20051;-82
2024/02/18 00:54:48;;;;;;;34.80;18.90;;;9.50;99.90;;;;;;4933941;29;20039;-82
2024/02/18 00:57:14;;;;;;;38.10;19.02;;;9.40;99.90;;;;;;4918156;29;20474;-82
2024/02/18 00:59:41;;;;;;;34.80;19.58;;;10.20;99.90;;;;;;4926179;29;20036;-82
2024/02/18 01:02:08;;;;;;;33.08;19.30;;;9.50;99.90;;;;;;4938581;29;20130;-82
2024/02/18 01:04:34;;;;;;;33.63;18.30;;;9.40;99.90;;;;;;4949112;29;20470;-82
2024/02/18 01:07:01;;;;;;;34.42;18.33;;;9.50;99.90;;;;;;4933029;29;20047;-82
2024/02/18 01:09:27;;;;;;;34.30;18.15;;;9.50;99.90;;;;;;4952739;29;20040;-82
2024/02/18 01:11:54;;;;;;;35.63;19.15;;;9.90;99.90;;;;;;4934088;29;20079;-82
2024/02/18 01:14:21;;;;;;;34.55;18.15;;;9.50;99.90;;;;;;4927393;29;20067;-82
2024/02/18 01:16:49;;;;;;;33.65;18.60;;;9.50;99.90;;;;;;4952348;29;20217;-82
2024/02/18 01:19:16;;;;;;;34.35;19.30;;;9.50;99.90;;;;;;4936493;29;20039;-82
2024/02/18 01:21:42;;;;;;;32.03;18.08;;;9.50;99.90;;;;;;4947178;29;20410;-82
2024/02/18 01:24:09;;;;;;;36.80;18.50;;;9.50;99.90;;;;;;4937042;29;20434;-82
2024/02/18 01:26:35;;;;;;;34.10;17.90;;;9.50;99.90;;;;;;4935263;29;20032;-82
2024/02/18 01:29:02;;;;;;;32.05;19.17;;;9.50;99.90;;;;;;4928054;29;20050;-82
2024/02/18 01:31:29;;;;;;;32.67;18.00;;;9.50;99.90;;;;;;4943568;29;20421;-82
2024/02/18 01:33:55;;;;;;;33.55;18.13;;;9.70;99.90;;;;;;4906997;29;20052;-82
2024/02/18 01:36:22;;;;;;;33.78;17.85;;;9.40;99.90;;;;;;4917708;29;20100;-82
2024/02/18 01:38:49;;;;;;;40.20;18.35;;;9.50;99.90;;;;;;4917340;29;20044;-82
2024/02/18 01:41:15;;;;;;;32.78;17.35;;;9.40;99.90;;;;;;4907079;29;20072;-82
2024/02/18 01:43:42;;;;;;;32.65;17.77;;;9.40;99.90;;;;;;4933235;29;20036;-82
2024/02/18 01:46:08;;;;;;;39.67;17.92;;;10.00;99.90;;;;;;4941768;29;20036;-82
2024/02/18 01:48:35;;;;;;;29.63;18.58;;;9.70;99.90;;;;;;4923287;29;20044;-82
2024/02/18 01:51:02;;;;;;;30.67;18.17;;;9.40;99.90;;;;;;4932736;29;20083;-82
2024/02/18 01:53:29;;;;;;;33.58;18.50;;;9.40;99.90;;;;;;4914533;29;20099;-82
2024/02/18 01:55:56;;;;;;;31.45;18.50;;;9.40;99.90;;;;;;4922399;29;20131;-82
2024/02/18 01:58:24;;;;;;;33.03;18.33;;;9.40;99.90;;;;;;4925787;29;20131;-82
2024/02/18 02:00:51;;;;;;;32.15;17.50;;;9.40;99.90;;;;;;4905263;29;20040;-82
2024/02/18 02:03:19;;;;;;;39.85;19.25;;;9.40;99.90;;;;;;4933041;29;20041;-82
2024/02/18 02:05:47;;;;;;;33.90;18.55;;;9.40;99.90;;;;;;4935206;29;20036;-82
2024/02/18 02:08:15;;;;;;;33.55;17.88;;;10.00;99.90;;;;;;4921230;29;20040;-82
2024/02/18 02:10:41;;;;;;;34.42;16.90;;;9.40;99.90;;;;;;4921106;29;20044;-82
2024/02/18 02:13:08;;;;;;;35.15;18.25;;;9.50;99.90;;;;;;4926881;29;20044;-82
2024/02/18 02:15:35;;;;;;;29.55;17.50;;;9.50;99.90;;;;;;4929723;29;20052;-83
2024/02/18 02:18:02;;;;;;;32.03;17.48;;;9.50;99.90;;;;;;4911026;29;20048;-83
2024/02/18 02:20:28;;;;;;;30.98;16.92;;;9.50;99.90;;;;;;4918238;29;20096;-82
2024/02/18 02:22:55;;;;;;;28.33;15.75;;;9.50;99.90;;;;;;4929203;29;20039;-82
2024/02/18 02:25:22;;;;;;;32.65;16.55;;;9.50;99.90;;;;;;4932902;29;20041;-83
2024/02/18 02:28:07;;;;;;;31.80;16.48;;;9.50;99.90;;;;;;4927149;29;20044;-82
2024/02/18 02:30:34;;;;;;;28.77;16.50;;;9.50;99.90;;;;;;4918825;29;20043;-82
2024/02/18 02:33:01;;;;;;;26.13;16.52;;;9.50;99.90;;;;;;4916348;29;20293;-82
2024/02/18 02:35:28;;;;;;;28.55;15.18;;;9.50;99.90;;;;;;4918378;29;20043;-82
2024/02/18 02:37:59;;;;;;;28.05;15.27;;;9.60;99.90;;;;;;4911263;29;20063;-82
2024/02/18 02:40:26;;;;;;;27.10;15.30;;;9.60;99.90;;;;;;4930950;29;20041;-82
2024/02/18 02:42:53;;;;;;;30.95;15.43;;;9.50;99.90;;;;;;4934392;29;20387;-82
2024/02/18 02:45:19;;;;;;;23.85;14.15;;;9.70;99.90;;;;;;4935732;29;20039;-82
2024/02/18 02:47:46;;;;;;;25.55;15.57;;;10.20;99.90;;;;;;4925117;29;20115;-82
2024/02/18 02:50:12;;;;;;;25.05;14.50;;;9.60;99.90;;;;;;4927975;29;20036;-82
2024/02/18 02:52:40;;;;;;;25.10;14.07;;;9.60;99.90;;;;;;4935945;29;20033;-82
2024/02/18 02:55:07;;;;;;;25.00;14.25;;;9.60;99.90;;;;;;4911684;29;20775;-82
2024/02/18 02:57:34;;;;;;;26.58;14.20;;;9.60;99.90;;;;;;4922555;29;20041;-82
2024/02/18 03:00:08;;;;;;;23.50;13.95;;;9.60;99.90;;;;;;4940226;29;20151;-82
2024/02/18 03:02:38;;;;;;;28.80;14.23;;;9.60;99.90;;;;;;4929054;29;20450;-82
2024/02/18 03:05:06;;;;;;;28.30;14.95;;;9.60;99.90;;;;;;4929516;29;20120;-82
2024/02/18 03:07:33;;;;;;;23.00;13.10;;;9.50;99.90;;;;;;4908277;29;20054;-82
2024/02/18 03:10:00;;;;;;;26.83;13.15;;;9.60;99.90;;;;;;4919554;29;20131;-82
2024/02/18 03:12:26;;;;;;;23.13;13.07;;;9.50;99.90;;;;;;4908752;29;20569;-82
2024/02/18 03:14:53;;;;;;;27.13;13.75;;;9.50;99.90;;;;;;4919429;29;20500;-82
2024/02/18 03:17:20;;;;;;;25.27;13.63;;;9.50;99.90;;;;;;4920131;29;20047;-82
2024/02/18 03:19:47;;;;;;;24.05;12.52;;;9.50;99.90;;;;;;4918528;29;20147;-82
2024/02/18 03:22:21;;;;;;;22.05;12.75;;;9.60;99.90;;;;;;4907983;29;20044;-82
2024/02/18 03:24:50;;;;;;;23.55;11.40;;;9.50;99.90;;;;;;4925170;29;20454;-82
2024/02/18 03:27:17;;;;;;;22.83;11.43;;;9.50;99.90;;;;;;4919815;29;20131;-82
2024/02/18 03:29:45;;;;;;;24.77;11.32;;;9.50;99.90;;;;;;4919880;29;20131;-82
2024/02/18 03:32:12;;;;;;;22.05;11.18;;;9.50;99.90;;;;;;4923339;29;20092;-82
2024/02/18 03:34:41;;;;;;;20.33;9.85;;;9.60;99.90;;;;;;4936524;29;20082;-82
2024/02/18 03:37:08;;;;;;;18.98;10.05;;;9.70;99.90;;;;;;4955898;29;20083;-82
2024/02/18 03:39:35;;;;;;;19.92;10.20;;;9.60;99.90;;;;;;4932041;29;20477;-82
2024/02/18 03:42:01;;;;;;;23.00;9.90;;;9.80;99.90;;;;;;4948604;29;20497;-82
2024/02/18 03:44:28;;;;;;;17.15;9.70;;;9.60;99.90;;;;;;4937130;29;20050;-82
2024/02/18 03:46:54;;;;;;;23.98;9.10;;;9.60;99.90;;;;;;4937214;29;20047;-82
2024/02/18 03:49:21;;;;;;;18.33;8.55;;;9.60;99.90;;;;;;4938001;29;20063;-82
2024/02/18 03:51:48;;;;;;;16.00;7.75;;;9.70;99.90;;;;;;4937494;29;20493;-82
2024/02/18 03:54:14;;;;;;;18.33;7.97;;;9.70;99.90;;;;;;4937906;29;20039;-82
2024/02/18 03:56:41;;;;;;;14.48;7.13;;;9.70;99.90;;;;;;4937925;29;20131;-82
2024/02/18 03:59:10;;;;;;;15.70;6.97;;;9.70;99.90;;;;;;4937903;29;20514;-82
2024/02/18 04:01:37;;;;;;;15.30;7.15;;;9.70;99.90;;;;;;4938111;29;20394;-82
2024/02/18 04:04:03;;;;;;;12.38;6.72;;;9.80;99.90;;;;;;4933271;29;20054;-82
2024/02/18 04:06:30;;;;;;;17.85;7.15;;;9.80;99.90;;;;;;4930045;29;20499;-82
2024/02/18 04:08:56;;;;;;;14.07;6.88;;;9.80;99.90;;;;;;4940998;29;20441;-82
2024/02/18 04:11:23;;;;;;;15.23;5.95;;;9.90;99.90;;;;;;4937965;29;20055;-82
2024/02/18 04:13:50;;;;;;;12.75;5.68;;;9.80;99.90;;;;;;4947765;29;20075;-82
2024/02/18 04:16:17;;;;;;;14.68;6.45;;;9.90;99.90;;;;;;4938051;29;20043;-82
2024/02/18 04:18:43;;;;;;;10.48;6.00;;;9.90;99.90;;;;;;4937877;29;20119;-82
2024/02/18 04:21:10;;;;;;;13.18;5.70;;;9.90;99.90;;;;;;4952953;29;20050;-82
2024/02/18 04:23:36;;;;;;;15.75;6.32;;;9.90;99.90;;;;;;4937426;29;20047;-82
2024/02/18 04:26:03;;;;;;;15.20;5.68;;;9.90;99.90;;;;;;4937560;29;20441;-82
2024/02/18 04:28:30;;;;;;;11.93;5.35;;;9.90;99.90;;;;;;4934104;29;20126;-82
2024/02/18 04:30:57;;;;;;;12.55;5.45;;;10.10;99.90;;;;;;4937243;29;20063;-82
2024/02/18 04:33:23;;;;;;;12.55;6.00;;;9.90;99.90;;;;;;4947863;29;20052;-82
2024/02/18 04:35:50;;;;;;;12.88;5.63;;;9.90;99.90;;;;;;4937301;29;20043;-82
2024/02/18 04:38:17;;;;;;;13.23;5.60;;;9.90;99.90;;;;;;4928195;29;20130;-83
2024/02/18 04:40:43;;;;;;;11.23;5.20;;;9.90;99.90;;;;;;4933228;29;20450;-83
2024/02/18 04:43:10;;;;;;;12.27;5.25;;;9.90;99.90;;;;;;4952704;29;20404;-83
2024/02/18 04:45:37;;;;;;;11.05;5.20;;;9.80;99.90;;;;;;4936710;29;20032;-83
2024/02/18 04:48:04;;;;;;;12.50;5.30;;;10.30;99.90;;;;;;4936853;29;20819;-83
2024/02/18 04:50:30;;;;;;;9.80;4.88;;;9.80;99.90;;;;;;4936925;29;20036;-83
2024/02/18 04:52:57;;;;;;;9.68;5.18;;;10.20;99.90;;;;;;4936979;29;20099;-83
2024/02/18 04:55:23;;;;;;;9.15;5.18;;;9.80;99.90;;;;;;4937338;29;20071;-82
2024/02/18 04:57:50;;;;;;;11.35;5.30;;;9.80;99.90;;;;;;4949141;29;20132;-83
2024/02/18 05:00:17;;;;;;;12.27;5.50;;;9.80;99.90;;;;;;4936847;29;20071;-82
2024/02/18 05:02:45;;;;;;;11.68;5.68;;;9.80;99.90;;;;;;4932978;29;20562;-82
2024/02/18 05:05:11;;;;;;;10.43;4.85;;;9.90;99.90;;;;;;4934776;29;20039;-82
2024/02/18 05:07:38;;;;;;;11.95;5.05;;;9.70;99.90;;;;;;4937067;29;20039;-82
2024/02/18 05:10:05;;;;;;;8.27;4.53;;;9.70;99.90;;;;;;4924054;29;20100;-82
2024/02/18 05:12:31;;;;;;;10.60;4.40;;;9.70;99.90;;;;;;4943466;29;20046;-83
2024/02/18 05:14:58;;;;;;;10.55;4.78;;;9.70;99.90;;;;;;4936751;29;20046;-82
2024/02/18 05:17:25;;;;;;;11.80;4.60;;;9.90;99.90;;;;;;4936337;29;20099;-83
2024/02/18 05:19:51;;;;;;;11.02;4.60;;;9.90;99.90;;;;;;4936261;29;20035;-83
2024/02/18 05:22:23;;;;;;;16.17;4.75;;;9.70;99.90;;;;;;4952503;29;20052;-83
2024/02/18 05:24:50;;;;;;;11.05;4.13;;;9.70;99.90;;;;;;4936259;29;20416;-82
2024/02/18 05:27:17;;;;;;;11.40;4.20;;;9.70;99.90;;;;;;4952147;29;20051;-82
2024/02/18 05:29:43;;;;;;;10.82;4.63;;;9.90;99.90;;;;;;4954124;29;20138;-82
2024/02/18 05:32:10;;;;;;;11.00;4.45;;;9.80;99.90;;;;;;4926762;29;20082;-83
2024/02/18 05:34:37;;;;;;;8.75;4.57;;;10.10;99.90;;;;;;4950351;29;20052;-82
2024/02/18 05:37:04;;;;;;;7.15;4.03;;;10.10;99.90;;;;;;4936194;29;20501;-82
2024/02/18 05:39:30;;;;;;;10.85;4.20;;;9.80;99.90;;;;;;4936318;29;20036;-82
2024/02/18 05:41:57;;;;;;;11.50;3.83;;;9.70;99.90;;;;;;4944027;29;20060;-82
2024/02/18 05:44:23;;;;;;;9.05;4.30;;;10.40;99.90;;;;;;4930046;29;20044;-82
2024/02/18 05:46:50;;;;;;;10.75;4.13;;;9.80;99.90;;;;;;4922028;29;20410;-82
2024/02/18 05:49:17;;;;;;;8.93;3.47;;;9.80;99.90;;;;;;4935207;29;20058;-83
2024/02/18 05:51:43;;;;;;;7.78;3.70;;;9.90;99.90;;;;;;4921564;29;20486;-82
2024/02/18 05:54:10;;;;;;;11.18;3.95;;;9.80;99.90;;;;;;4946704;29;20110;-82
2024/02/18 05:56:36;;;;;;;9.52;3.70;;;9.80;99.90;;;;;;4952000;29;20039;-82
2024/02/18 05:59:03;;;;;;;6.65;3.33;;;9.80;99.90;;;;;;4929964;29;20044;-82
2024/02/18 06:01:30;;;;;;;9.60;3.50;;;9.80;99.90;;;;;;4929674;29;20038;-82
2024/02/18 06:03:57;;;;;;;9.90;3.50;;;9.80;99.90;;;;;;4932936;29;20047;-82
2024/02/18 06:06:23;;;;;;;10.30;3.75;;;9.90;99.90;;;;;;4942332;29;20481;-82
2024/02/18 06:08:50;;;;;;;7.40;3.58;;;9.90;99.90;;;;;;4944687;29;20493;-83
2024/02/18 06:11:17;;;;;;;13.55;3.85;;;9.80;99.90;;;;;;4948240;29;20103;-82
2024/02/18 06:13:44;;;;;;;8.65;3.50;;;9.80;99.90;;;;;;4928727;29;20048;-82
2024/02/18 06:16:10;;;;;;;9.13;3.63;;;9.80;99.90;;;;;;4954695;29;20042;-83
2024/02/18 06:18:37;;;;;;;10.85;3.47;;;10.00;99.90;;;;;;4939707;29;20071;-82
2024/02/18 06:21:04;;;;;;;9.48;3.47;;;9.70;99.90;;;;;;4939802;29;20051;-82
2024/02/18 06:23:31;;;;;;;10.98;3.60;;;9.70;99.90;;;;;;4940103;29;20054;-82
2024/02/18 06:25:58;;;;;;;9.60;3.45;;;9.90;99.90;;;;;;4936550;29;20853;-82
2024/02/18 06:28:32;;;;;;;7.22;3.90;;;9.80;99.90;;;;;;4943241;29;20059;-82
2024/02/18 06:31:02;;;;;;;11.18;3.38;;;9.70;99.90;;;;;;4939266;29;20130;-82
2024/02/18 06:33:29;;;;;;;8.90;3.40;;;9.80;99.90;;;;;;4939578;29;20074;-82
2024/02/18 06:35:56;;;;;;;9.00;3.60;;;9.60;99.90;;;;;;4936723;29;20044;-82
2024/02/18 06:38:23;;;;;;;9.63;3.47;;;9.60;99.90;;;;;;4936558;29;20045;-82
2024/02/18 06:40:52;;;;;;;12.48;3.90;;;9.60;99.90;;;;;;4939521;29;20170;-82
2024/02/18 06:43:19;;;;;;;9.15;3.80;;;9.60;99.90;;;;;;4933465;29;20051;-83
2024/02/18 06:45:46;;;;;;;10.20;3.60;;;9.60;99.90;;;;;;4940956;29;20536;-83
2024/02/18 06:48:12;;;;;;;12.48;3.50;;;9.60;99.90;;;;;;4954451;29;20036;-83
2024/02/18 06:50:39;;;;;;;9.43;3.75;;;9.90;99.90;;;;;;4938998;29;20032;-82
2024/02/18 06:53:06;;;;;;;8.40;3.70;;;9.50;99.90;;;;;;4939026;29;20046;-83
2024/02/18 06:55:33;;;;;;;10.48;4.13;;;9.60;99.90;;;;;;4938849;29;20177;-82
2024/02/18 06:57:59;;;;;;;10.70;3.80;;;9.50;99.90;;;;;;4938803;29;20537;-82
2024/02/18 07:00:26;;;;;;;6.85;3.72;;;9.60;99.90;;;;;;4938820;29;20087;-83
2024/02/18 07:02:53;;;;;;;7.20;4.07;;;9.50;99.90;;;;;;4938811;29;20074;-83
2024/02/18 07:05:20;;;;;;;8.85;3.70;;;9.60;99.90;;;;;;4954263;29;20040;-83
2024/02/18 07:07:47;;;;;;;10.23;3.70;;;9.50;99.90;;;;;;4954241;29;20866;-83
2024/02/18 07:10:13;;;;;;;8.88;4.32;;;9.50;99.90;;;;;;4938731;29;20169;-82
2024/02/18 07:12:40;;;;;;;10.43;3.80;;;9.50;99.90;;;;;;4942396;29;20044;-83
2024/02/18 07:15:07;;;;;;;10.05;3.90;;;9.40;99.90;;;;;;4938832;29;20043;-83
2024/02/18 07:17:34;;;;;;;11.32;4.15;;;9.50;99.90;;;;;;4938719;29;20069;-85
2024/02/18 07:20:01;;;;;;;14.27;4.43;;;9.70;99.90;;;;;;4937413;29;20039;-83
2024/02/18 07:22:27;;;;;;;8.00;4.25;;;9.50;99.90;;;;;;4954379;29;20044;-83
2024/02/18 07:24:54;;;;;;;10.63;4.43;;;9.50;99.90;;;;;;4938129;29;20091;-83
2024/02/18 07:27:21;;;;;;;7.70;3.95;;;9.90;99.90;;;;;;4937222;29;20809;-83
2024/02/18 07:29:48;;;;;;;10.95;4.50;;;9.60;99.90;;;;;;4938524;29;20050;-83
2024/02/18 07:32:14;;;;;;;11.63;4.00;;;10.10;99.90;;;;;;4953981;29;20126;-82
2024/02/18 07:34:42;;;;;;;11.15;4.40;;;9.40;99.90;;;;;;4954379;29;20122;-83
2024/02/18 07:37:10;;;;;;;12.52;4.30;;;9.50;99.90;;;;;;4937571;29;20044;-83
2024/02/18 07:39:37;;;;;;;12.90;4.40;;;9.40;99.90;;;;;;4935386;29;20086;-83
2024/02/18 07:42:04;;;;;;;9.45;4.25;;;9.40;99.90;;;;;;4950309;29;20071;-83
2024/02/18 07:44:30;;;;;;;10.35;5.00;;;9.40;99.90;;;;;;4937523;29;20515;-83
2024/02/18 07:46:57;;;;;;;12.20;4.40;;;9.40;99.90;;;;;;4953439;29;20489;-82
2024/02/18 07:49:24;;;;;;;14.88;4.68;;;9.40;99.90;;;;;;4934639;29;20091;-83
2024/02/18 07:51:50;;;;;;;10.68;4.32;;;9.80;99.90;;;;;;4950742;29;20040;-82
2024/02/18 07:54:17;;;;;;;10.85;4.25;;;9.90;99.90;;;;;;4936778;29;20044;-83
2024/02/18 07:56:45;;;;;;;14.30;4.57;;;9.60;99.90;;;;;;4938493;29;20122;-83
2024/02/18 07:59:12;;;;;;;12.23;4.25;;;9.40;99.90;;;;;;4937859;29;20036;-82
2024/02/18 08:01:39;;;;;;;10.95;4.40;;;9.30;99.90;;;;;;4937485;29;20039;-83
2024/02/18 08:04:06;;;;;;;10.07;4.00;;;9.50;99.90;;;;;;4934303;29;20107;-82
2024/02/18 08:06:33;;;;;;;9.13;4.00;;;9.30;99.90;;;;;;4927319;29;20490;-83
2024/02/18 08:08:59;;;;;;;10.82;4.30;;;9.30;99.90;;;;;;4936921;29;20058;-83
2024/02/18 08:11:26;;;;;;;12.23;4.03;;;9.30;99.90;;;;;;4937701;29;20059;-83
2024/02/18 08:13:53;;;;;;;10.15;4.50;;;9.50;99.90;;;;;;4936510;29;20052;-84
2024/02/18 08:16:19;;;;;;;14.75;4.90;;;9.40;99.90;;;;;;4953440;29;20040;-83
2024/02/18 08:18:46;;;;;;;13.57;5.20;;;9.40;99.90;;;;;;4937586;29;20044;-83
2024/02/18 08:21:13;;;;;;;11.48;5.55;;;9.50;99.90;;;;;;4942990;29;20047;-82
2024/02/18 08:23:39;;;;;;;8.95;4.60;;;9.40;99.90;;;;;;4940435;29;20527;-83
2024/02/18 08:26:07;;;;;;;13.57;4.95;;;9.40;99.90;;;;;;4936816;29;20040;-82
2024/02/18 08:28:34;;;;;;;13.07;4.85;;;9.40;99.90;;;;;;4953252;29;20051;-83
2024/02/18 08:31:01;;;;;;;14.50;9.40;;;9.60;99.90;;;;;;4936001;29;20543;-83
2024/02/18 08:33:27;;;;;;;10.52;4.28;;;9.40;99.90;;;;;;4934681;29;20059;-83
2024/02/18 08:35:54;;;;;;;9.18;4.50;;;9.70;99.90;;;;;;4950391;29;20043;-84
2024/02/18 08:38:21;;;;;;;13.82;4.13;;;9.50;99.90;;;;;;4936351;29;20481;-84
2024/02/18 08:40:47;;;;;;;10.43;4.30;;;9.40;99.90;;;;;;4950981;29;20054;-83
2024/02/18 08:43:14;;;;;;;10.88;4.25;;;9.50;99.90;;;;;;4948973;29;20421;-83
2024/02/18 08:45:41;;;;;;;13.13;5.85;;;9.40;99.90;;;;;;4937238;29;20036;-83
2024/02/18 08:48:08;;;;;;;12.10;5.20;;;9.40;99.90;;;;;;4937205;29;20516;-83
2024/02/18 08:50:34;;;;;;;11.75;5.05;;;9.40;99.90;;;;;;4937036;29;20047;-82
2024/02/18 08:53:02;;;;;;;11.95;5.85;;;9.40;99.90;;;;;;4937141;29;20043;-82
2024/02/18 08:55:28;;;;;;;10.80;5.15;;;9.40;99.90;;;;;;4952312;29;20386;-82
2024/02/18 08:57:55;;;;;;;8.88;4.70;;;9.40;99.90;;;;;;4928566;29;20071;-85
2024/02/18 09:00:22;;;;;;;10.23;4.53;;;9.40;99.90;;;;;;4937041;29;20047;-83
2024/02/18 09:02:48;;;;;;;12.45;4.57;;;9.40;99.90;;;;;;4936865;29;20099;-82
2024/02/18 09:05:15;;;;;;;14.05;4.43;;;9.50;99.90;;;;;;4936818;29;20031;-82
2024/02/18 09:07:42;;;;;;;11.32;4.82;;;9.30;99.90;;;;;;4936812;29;20071;-82
2024/02/18 09:10:09;;;;;;;11.77;4.63;;;9.30;99.90;;;;;;4924698;29;20493;-82
2024/02/18 09:12:35;;;;;;;9.30;4.30;;;9.30;99.90;;;;;;4937131;29;20052;-82
2024/02/18 09:15:02;;;;;;;13.18;4.78;;;9.30;99.90;;;;;;4933202;29;20103;-82
2024/02/18 09:17:29;;;;;;;14.95;4.50;;;9.30;99.90;;;;;;4938407;29;20042;-82
2024/02/18 09:19:55;;;;;;;10.35;4.22;;;9.30;99.90;;;;;;4920952;29;20040;-82
2024/02/18 09:22:22;;;;;;;10.32;3.95;;;9.50;99.90;;;;;;4932581;29;20477;-82
2024/02/18 09:24:49;;;;;;;10.57;4.57;;;9.30;99.90;;;;;;4931056;29;20090;-82
2024/02/18 09:27:16;;;;;;;13.32;4.40;;;9.20;99.90;;;;;;4936351;29;20044;-82
2024/02/18 09:29:43;;;;;;;9.25;3.80;;;9.20;99.90;;;;;;4926222;29;20074;-82
2024/02/18 09:32:09;;;;;;;11.95;4.22;;;9.40;99.90;;;;;;4943595;29;20090;-81
2024/02/18 09:34:37;;;;;;;12.48;5.10;;;9.30;99.90;;;;;;4936628;29;20043;-82
2024/02/18 09:37:04;;;;;;;10.50;4.60;;;9.30;99.90;;;;;;4951940;29;20510;-82
2024/02/18 09:39:30;;;;;;;11.15;3.70;;;9.70;99.90;;;;;;4936079;29;20131;-82
2024/02/18 09:42:00;;;;;;;9.00;3.50;;;9.30;99.90;;;;;;4951728;29;20130;-82
2024/02/18 09:44:30;;;;;;;11.00;3.90;;;9.30;99.90;;;;;;4936267;29;20035;-82
2024/02/18 09:46:59;;;;;;;7.18;3.88;;;9.90;99.90;;;;;;4936483;29;20143;-82
2024/02/18 09:49:28;;;;;;;8.60;4.65;;;9.30;99.90;;;;;;4935659;29;20118;-82
2024/02/18 09:51:55;;;;;;;11.27;3.67;;;9.40;99.90;;;;;;4934848;29;20048;-82
2024/02/18 09:54:23;;;;;;;6.22;3.70;;;9.40;99.90;;;;;;4952335;29;20047;-82
2024/02/18 09:56:50;;;;;;;9.35;3.53;;;9.50;99.90;;;;;;4954214;29;20047;-82
2024/02/18 09:59:17;;;;;;;10.65;3.40;;;9.40;99.90;;;;;;4947317;29;20050;-82
2024/02/18 10:01:46;;;;;;;8.82;3.50;;;9.50;99.90;;;;;;4917538;29;20135;-82
2024/02/18 10:04:12;;;;;;;8.73;3.33;;;9.40;99.90;;;;;;4936163;29;20084;-81
2024/02/18 10:06:39;;;;;;;8.75;3.50;;;9.50;99.90;;;;;;4935160;29;20123;-81
2024/02/18 10:09:07;;;;;;;12.95;4.40;;;9.50;99.90;;;;;;4934092;29;20099;-82
2024/02/18 10:11:34;;;;;;;8.23;3.35;;;9.50;99.90;;;;;;4951295;29;20047;-82
2024/02/18 10:14:01;;;;;;;9.55;3.50;;;9.60;99.90;;;;;;4927786;29;20046;-82
2024/02/18 10:16:28;;;;;;;10.45;3.45;;;9.40;99.90;;;;;;4936867;29;20160;-82
2024/02/18 10:18:54;;;;;;;10.18;3.17;;;9.60;99.90;;;;;;4928634;29;20410;-82
2024/02/18 10:21:22;;;;;;;8.05;3.85;;;9.50;99.90;;;;;;4930841;29;20042;-82
2024/02/18 10:23:49;;;;;;;7.47;3.08;;;9.70;99.90;;;;;;4936017;29;20042;-82
2024/02/18 10:26:16;;;;;;;10.38;3.55;;;9.70;99.90;;;;;;4951451;29;20134;-82
2024/02/18 10:28:43;;;;;;;9.02;3.53;;;9.50;99.90;;;;;;4936287;29;20123;-82
2024/02/18 10:31:09;;;;;;;12.18;4.03;;;9.60;99.90;;;;;;4950525;29;20052;-83
2024/02/18 10:33:37;;;;;;;7.93;3.45;;;9.40;99.90;;;;;;4950297;29;20048;-83
2024/02/18 10:36:13;;;;;;;6.82;3.55;;;9.40;99.90;;;;;;4931885;29;20047;-82
2024/02/18 10:38:50;;;;;;;6.72;3.28;;;9.40;99.90;;;;;;4951256;29;20130;-82
2024/02/18 10:41:19;;;;;;;9.48;3.60;;;9.60;99.90;;;;;;4934879;29;20074;-83
2024/02/18 10:43:50;;;;;;;6.18;4.03;;;9.40;99.90;;;;;;4936087;29;20040;-83
2024/02/18 10:46:20;;;;;;;8.57;3.60;;;9.50;99.90;;;;;;4934055;29;20032;-83
2024/02/18 10:48:52;;;;;;;8.23;3.47;;;9.40;99.90;;;;;;4935587;29;20040;-82
2024/02/18 10:51:33;;;;;;;8.48;3.67;;;9.40;99.90;;;;;;4936603;29;20050;-83
2024/02/18 10:54:19;;;;;;;8.57;3.50;;;9.50;99.90;;;;;;4930304;29;20072;-83
2024/02/18 10:56:46;;;;;;;11.30;3.53;;;9.40;99.90;;;;;;4933381;29;20173;-83
2024/02/18 10:59:31;;;;;;;10.65;4.00;;;9.40;99.90;;;;;;4935636;29;20339;-83
2024/02/18 11:02:05;;;;;;;9.30;3.30;;;9.40;99.90;;;;;;4925324;29;20048;-83
2024/02/18 11:04:32;;;;;;;7.90;3.55;;;9.50;99.90;;;;;;4939176;29;20036;-83
2024/02/18 11:06:59;;;;;;;7.55;3.22;;;9.40;99.90;;;;;;4938564;29;20048;-83
2024/02/18 11:09:26;;;;;;;7.20;3.40;;;9.40;99.90;;;;;;4926771;29;20048;-83
2024/02/18 11:11:54;;;;;;;8.38;3.50;;;9.40;99.90;;;;;;4941187;29;20043;-83
2024/02/18 11:14:23;;;;;;;8.30;3.38;;;9.80;99.90;;;;;;4938634;29;20075;-83
2024/02/18 11:16:52;;;;;;;9.27;4.40;;;10.20;99.90;;;;;;4954081;29;20090;-83
2024/02/18 11:19:19;;;;;;;8.80;4.18;;;9.70;99.90;;;;;;4953980;29;20493;-83
2024/02/18 11:21:50;;;;;;;6.95;3.80;;;9.40;99.90;;;;;;4953195;29;20047;-83
2024/02/18 11:24:17;;;;;;;9.43;3.58;;;9.30;99.90;;;;;;4953803;29;20433;-84
2024/02/18 11:26:44;;;;;;;6.45;3.40;;;9.40;99.90;;;;;;4935405;29;20102;-83
2024/02/18 11:29:10;;;;;;;6.20;3.35;;;9.40;99.90;;;;;;4929509;29;20039;-83
2024/02/18 11:31:37;;;;;;;8.55;3.47;;;9.30;99.90;;;;;;4938263;29;20062;-83
2024/02/18 11:34:04;;;;;;;8.75;3.47;;;9.30;99.90;;;;;;4954423;29;20052;-83
2024/02/18 11:36:31;;;;;;;6.75;3.30;;;9.30;99.90;;;;;;4954400;29;20051;-83
2024/02/18 11:38:58;;;;;;;6.63;3.78;;;9.30;99.90;;;;;;4938158;29;20047;-83
2024/02/18 11:41:28;;;;;;;5.75;3.35;;;9.30;99.90;;;;;;4938436;29;20093;-83
2024/02/18 11:43:59;;;;;;;6.53;3.42;;;10.00;99.90;;;;;;4938129;29;20508;-83
2024/02/18 11:46:28;;;;;;;6.50;3.28;;;9.30;99.90;;;;;;4938466;29;20044;-83
2024/02/18 11:48:55;;;;;;;8.32;3.13;;;9.20;99.90;;;;;;4938566;29;20039;-83
2024/02/18 11:51:24;;;;;;;5.32;2.80;;;9.20;99.90;;;;;;4937767;29;20516;-83
2024/02/18 11:53:51;;;;;;;5.57;2.95;;;9.20;99.90;;;;;;4938320;29;20048;-83
2024/02/18 11:56:18;;;;;;;7.30;3.10;;;9.20;99.90;;;;;;4928532;29;20143;-83
2024/02/18 11:58:46;;;;;;;5.65;3.13;;;9.20;99.90;;;;;;4948084;29;20126;-84
2024/02/18 12:01:19;;;;;;;7.93;3.22;;;9.20;99.90;;;;;;4937516;29;20039;-83
2024/02/18 12:03:48;;;;;;;7.07;3.20;;;9.70;99.90;;;;;;4945757;29;20041;-83
2024/02/18 12:06:15;;;;;;;8.80;3.50;;;9.20;99.90;;;;;;4953479;29;20039;-83
2024/02/18 12:08:42;;;;;;;6.47;3.33;;;10.00;99.90;;;;;;4957315;29;20046;-83
2024/02/18 12:11:08;;;;;;;9.20;3.15;;;9.40;99.90;;;;;;4937003;29;20493;-83
2024/02/18 12:13:35;;;;;;;6.97;3.00;;;9.50;99.90;;;;;;4937044;29;20052;-83
2024/02/18 12:16:06;;;;;;;5.43;2.90;;;9.20;99.90;;;;;;4951427;29;20040;-83
2024/02/18 12:18:33;;;;;;;6.75;3.33;;;9.10;99.90;;;;;;4953498;29;20055;-83
2024/02/18 12:21:00;;;;;;;6.13;3.10;;;9.10;99.90;;;;;;4953581;29;20058;-83
2024/02/18 12:23:26;;;;;;;6.47;3.10;;;9.10;99.90;;;;;;4937918;29;20048;-83
2024/02/18 12:25:56;;;;;;;7.10;2.85;;;9.10;99.90;;;;;;4937185;29;20074;-83
2024/02/18 12:28:23;;;;;;;6.05;2.80;;;9.10;99.90;;;;;;4937896;29;20090;-83
2024/02/18 12:30:50;;;;;;;7.70;2.83;;;9.20;99.90;;;;;;4936898;29;20048;-83
2024/02/18 12:33:17;;;;;;;10.25;2.88;;;9.00;99.90;;;;;;4951186;29;20041;-83
2024/02/18 12:35:44;;;;;;;8.25;3.33;;;9.20;99.90;;;;;;4936953;29;20127;-82
2024/02/18 12:38:11;;;;;;;10.02;4.35;;;9.00;99.90;;;;;;4937196;29;20122;-83
2024/02/18 12:40:40;;;;;;;6.97;3.63;;;9.60;99.90;;;;;;4936756;29;20055;-83
2024/02/18 12:43:07;;;;;;;5.82;2.83;;;9.00;99.90;;;;;;4934186;29;20044;-82
2024/02/18 12:45:34;;;;;;;7.22;3.15;;;9.00;99.90;;;;;;4947438;29;20469;-83